• Join FlightAware (Why Join?)
  • Login
  • US Flag GB Flag 
20:02 EDT


 

Airport Tracker/Info


-or-


 

Live Flight TrackerFlight Track Log ✈ DAL268 ✈ 20-May-2013 ✈ KATL - KJFK

Flight Track Log - Related Links

Times and Time Zones

All times are in EDT time to prevent confusion due to time zone crossing. See the DAL268 flight status page for this flight to view local times or setup timezone preferences in your user account.

Time Position Orientation Groundspeed Altitude Reporting Facility
EDT Latitude Longitude Course Direction KTS MPH feet Rate Location/Type
18:34 33.6333 -84.5000 64° Northeast 207 238 2,700  Level Atlanta TRACON
18:35 33.6000 -84.5667 239° Southwest 255 293 4,600 2,220 Climbing Atlanta TRACON
18:36 33.7138 -84.0161 101° East  Level FlightAware Approximate
18:36 33.5167 -84.5833 189° South 277 319 7,400  Level Atlanta TRACON
18:37 33.6913 -83.8807 101° East  Level FlightAware Approximate
18:38 33.6687 -83.7454 101° East  Level FlightAware Approximate
18:38 33.4556 -84.3875 110° East 272 313 11,400  Level Atlanta Center
18:39 33.6587 -83.6121 64° Northeast  Level FlightAware Approximate
18:39 33.4622 -84.2628 86° East 345 397 13,000  Level Atlanta Center
18:40 33.5125 -84.1458 63° Northeast 355 409 15,200 2,100 Climbing Atlanta Center
18:41 33.5606 -84.0214 65° Northeast 388 447 17,300 1,800 Climbing Atlanta Center
18:42 33.6083 -83.8942 66° East 407 468 18,800 1,620 Climbing Atlanta Center
18:43 33.6353 -83.7544 77° East 420 483 20,600 1,500 Climbing Atlanta Center
18:44 33.6703 -83.6119 74° East 433 498 21,800 1,080 Climbing Atlanta Center
18:45 33.7200 -83.4869 64° Northeast 445 512 22,800 1,200 Climbing Atlanta Center
18:46 33.7778 -83.3489 63° Northeast 459 528 24,200 1,320 Climbing Atlanta Center
18:47 33.8331 -83.2111 64° Northeast 464 534 25,500 1,440 Climbing Atlanta Center
18:48 33.8906 -83.0678 64° Northeast 464 534 27,100 1,380 Climbing Atlanta Center
18:49 33.9500 -82.9269 63° Northeast 464 534 28,300 1,080 Climbing Atlanta Center
18:50 34.0050 -82.7858 65° Northeast 464 534 29,300 1,020 Climbing Atlanta Center
18:51 34.0597 -82.6472 64° Northeast 464 534 30,400 840 Climbing Atlanta Center
18:52 34.1103 -82.5083 66° East 459 528 31,000 480 Climbing Atlanta Center
18:53 34.1750 -82.3564 63° Northeast 454 522 31,400 480 Climbing Atlanta Center
18:54 34.2294 -82.2147 65° Northeast 454 522 32,000 600 Climbing Atlanta Center
18:55 34.2900 -82.0778 62° Northeast 459 528 32,600 480 Climbing Atlanta Center
18:56 34.3567 -81.9453 59° Northeast 459 528 33,000 180 Climbing Atlanta Center
18:57 34.4231 -81.8128 59° Northeast 459 528 33,000  Level Atlanta Center
18:58 34.4894 -81.6800 59° Northeast 459 528 33,000  Level Atlanta Center
18:59 34.5497 -81.5597 59° Northeast 466 536 33,000  Level Atlanta Center
19:00 34.6158 -81.4239 59° Northeast 466 536 33,000  Level Atlanta Center
19:01 34.6878 -81.2728 60° Northeast 461 531 33,000  Level Atlanta Center
19:02 34.7533 -81.1392 59° Northeast 461 531 33,000  Level Atlanta Center
19:03 34.8211 -81.0050 58° Northeast 461 531 33,000  Level Atlanta Center
19:04 34.8786 -80.8842 60° Northeast 467 537 33,000  Level Atlanta Center
19:05 34.9458 -80.7447 60° Northeast 461 531 33,000  Level Atlanta Center
19:07 35.0964 -80.4278 60° Northeast 463 533 33,000  Level Washington Center
19:08 35.1556 -80.3019 60° Northeast 463 533 33,000  Level Washington Center
19:09 35.2194 -80.1658 60° Northeast 462 532 33,000  Level Washington Center
19:10 35.2958 -80.0200 57° Northeast 462 532 33,000  Level Washington Center
19:11 35.3636 -79.8786 60° Northeast 457 526 33,000  Level Washington Center
19:12 35.4186 -79.7361 65° Northeast 457 526 33,000  Level Washington Center
19:13 35.4633 -79.5856 70° East 462 532 33,000  Level Washington Center
19:14 35.5058 -79.4372 71° East 462 532 33,000  Level Washington Center
19:15 35.5483 -79.2861 71° East 462 532 33,000  Level Washington Center
19:16 35.5856 -79.1525 71° East 462 532 33,000  Level Washington Center
19:17 35.6300 -78.9883 72° East 457 526 33,000  Level Washington Center
19:18 35.6739 -78.8392 70° East 457 526 33,000  Level Washington Center
19:19 35.7128 -78.7053 70° East 457 526 33,000  Level Washington Center
19:20 35.7544 -78.5508 72° East 464 534 33,000  Level Washington Center
19:21 35.7978 -78.3986 71° East 464 534 33,000  Level Washington Center
19:22 35.8633 -78.2600 60° Northeast 464 534 33,000  Level Washington Center
19:23 35.9311 -78.1264 58° Northeast 458 527 33,000  Level Washington Center
19:24 36.0006 -77.9925 57° Northeast 458 527 33,000  Level Washington Center
19:25 36.0700 -77.8611 57° Northeast 458 527 33,000  Level Washington Center
19:26 36.1350 -77.7267 59° Northeast 458 527 33,000  Level Washington Center
19:27 36.2039 -77.5947 57° Northeast 458 527 33,000  Level Washington Center
19:28 36.2772 -77.4469 58° Northeast 458 527 33,000  Level Washington Center
19:29 36.3439 -77.3119 58° Northeast 458 527 33,000  Level Washington Center
19:30 36.4106 -77.1742 59° Northeast 453 521 33,000  Level Washington Center
19:31 36.4811 -77.0411 57° Northeast 458 527 33,000  Level Washington Center
19:32 36.5494 -76.9028 58° Northeast 458 527 33,000  Level Washington Center
19:33 36.6236 -76.7981 49° Northeast 458 527 33,000  Level Washington Center
19:34 36.7353 -76.6933 37° Northeast 450 518 33,000  Level Washington Center
19:35 36.8403 -76.5989 36° Northeast 450 518 33,000  Level Washington Center
19:36 36.9453 -76.5042 36° Northeast 457 526 33,000  Level Washington Center
19:37 37.0483 -76.4089 36° Northeast 457 526 33,000  Level Washington Center
19:38 37.1428 -76.3214 36° Northeast 457 526 33,000  Level Washington Center
19:39 37.2456 -76.2283 36° Northeast 457 526 33,000  Level Washington Center
19:40 37.3628 -76.1250 35° Northeast 462 532 33,000  Level Washington Center
19:41 37.4653 -76.0314 36° Northeast 457 526 33,000  Level Washington Center
19:42 37.5678 -75.9297 38° Northeast 457 526 33,000  Level Washington Center
19:43 37.6703 -75.8331 37° Northeast 457 526 33,000  Level Washington Center
19:44 37.7747 -75.7364 36° Northeast 457 526 33,000  Level Washington Center
19:45 37.8769 -75.6417 36° Northeast 457 526 33,000  Level Washington Center
19:46 37.9814 -75.5444 36° Northeast 457 526 33,000  Level Washington Center
19:47 38.0833 -75.4519 36° Northeast 457 526 33,000  Level Washington Center
19:48 38.1958 -75.3856 25° Northeast 446 513 33,000 -360 Level Washington Center
19:49 38.3083 -75.3139 27° Northeast 441 507 32,300 -1,020 Descending Washington Center
19:50 38.4061 -75.2447 29° Northeast 446 513 31,000 -660 Descending Washington Center
19:51 38.5186 -75.1725 27° Northeast 446 513 31,000  Level Washington Center
19:52 38.6328 -75.1000 26° Northeast 446 513 31,000  Level Washington Center
19:53 38.7472 -75.0328 25° Northeast 441 507 31,000  Level Washington Center
19:54 38.8594 -74.9597 27° Northeast 446 513 31,000  Level Washington Center
19:55 38.9717 -74.8894 26° Northeast 446 513 31,000 -60 Level Washington Center
19:56 39.0817 -74.8133 28° Northeast 446 513 30,900 -1,980 Descending Washington Center
19:58 39.2775 -74.6114 39° Northeast 452 520 25,300 -2,760 Descending New York Center
19:59 39.3706 -74.5092 40° Northeast 444 511 22,900 -2,400 Descending New York Center
20:00 39.4614 -74.4089 40° Northeast 429 494 20,600 -2,220 Descending New York Center
20:01 39.5475 -74.3139 40° Northeast 415 478 18,500 -1,320 Descending New York Center
20:02 39.6250 -74.2314 39° Northeast 408 470 18,000 -1,140 Descending New York Center
20:03 39.7156 -74.1333 40° Northeast 395 455 16,300 -1,980 Descending New York Center
20:04 39.7953 -74.0453 40° Northeast 388 447 14,200 -2,160 Descending New York Center
20:05 39.8767 -73.9653 37° Northeast 374 430 12,100 -1,620 Descending New York Center
20:06 39.9550 -73.9122 27° Northeast 355 409 11,000 -600 Descending New York Center
20:07 40.0317 -73.8586 28° Northeast 324 373 11,000 -480 Level New York Center
20:08 40.0958 -73.7883 40° Northeast 298 343 10,100 -1,440 Descending New York Center
20:09 40.1833 -73.7333 26° Northeast 292 336 8,000 -1,800 Descending New York TRACON
20:10 40.2333 -73.8000 315° West 276 318 6,400 -1,560 Descending New York TRACON
20:11 40.2667 -73.8833 298° West 268 308 4,900 -1,320 Descending New York TRACON
20:12 40.2961 -73.9467 301° West 258 297 4,000 -660 Descending New York Center
20:13 40.3361 -74.0058 312° West 225 259 3,700 -540 Descending New York Center
20:14 40.3861 -74.0000 North 179 206 3,000 -360 Descending New York Center
20:15 40.4450 -73.9889 North 185 213 3,000  Level New York Center
20:16 40.5000 -73.9667 17° North 198 228 3,000 -240 Level New York TRACON
20:17 40.5500 -73.9500 14° North 203 234 2,600 -420 Descending New York TRACON